createdAt,value
2018-12-25T00:01:22.650Z,100.00
2018-12-25T00:03:51.054Z,100.00
2018-12-25T00:06:19.568Z,100.00
2018-12-25T00:08:47.994Z,100.00
2018-12-25T00:11:16.419Z,100.00
2018-12-25T00:13:44.842Z,100.00
2018-12-25T00:16:13.255Z,100.00
2018-12-25T00:18:41.688Z,100.00
2018-12-25T00:21:10.208Z,100.00
2018-12-25T00:23:38.616Z,100.00
2018-12-25T00:26:07.067Z,100.00
2018-12-25T00:28:35.522Z,100.00
2018-12-25T00:31:03.934Z,100.00
2018-12-25T00:33:33.372Z,100.00
2018-12-25T00:36:02.799Z,100.00
2018-12-25T00:38:32.136Z,100.00
2018-12-25T00:41:05.399Z,100.00
2018-12-25T00:43:33.831Z,100.00
2018-12-25T00:46:02.381Z,100.00
2018-12-25T00:48:30.811Z,100.00
2018-12-25T00:50:59.219Z,100.00
2018-12-25T00:53:27.661Z,100.00
2018-12-25T00:55:56.069Z,100.00
2018-12-25T00:58:24.508Z,100.00
2018-12-25T01:00:53.020Z,100.00
2018-12-25T01:03:21.445Z,100.00
2018-12-25T01:05:49.874Z,100.00
2018-12-25T01:08:18.343Z,100.00
2018-12-25T01:10:46.847Z,100.00
2018-12-25T01:13:15.280Z,100.00
2018-12-25T01:15:44.448Z,100.00
2018-12-25T01:18:12.878Z,100.00
2018-12-25T01:20:41.328Z,100.00
2018-12-25T01:23:09.737Z,100.00
2018-12-25T01:25:38.191Z,100.00
2018-12-25T01:28:06.712Z,100.00
2018-12-25T01:30:35.114Z,100.00
2018-12-25T01:33:03.538Z,100.00
2018-12-25T01:35:31.957Z,100.00
2018-12-25T01:38:00.368Z,100.00
2018-12-25T01:40:28.794Z,100.00
2018-12-25T01:42:57.211Z,100.00
2018-12-25T01:45:25.629Z,100.00
2018-12-25T01:47:54.096Z,100.00
2018-12-25T01:50:22.510Z,100.00
2018-12-25T01:52:51.089Z,100.00
2018-12-25T01:55:19.506Z,100.00
2018-12-25T01:57:47.917Z,100.00
2018-12-25T02:00:16.812Z,100.00
2018-12-25T02:02:45.231Z,100.00
2018-12-25T02:05:13.733Z,100.00
2018-12-25T02:07:42.183Z,100.00
2018-12-25T02:10:10.742Z,100.00
2018-12-25T02:12:39.146Z,100.00
2018-12-25T02:15:07.675Z,100.00
2018-12-25T02:17:36.151Z,100.00
2018-12-25T02:20:05.834Z,100.00
2018-12-25T02:22:34.292Z,100.00
2018-12-25T02:25:03.079Z,100.00
2018-12-25T02:27:31.592Z,100.00
2018-12-25T02:30:00.097Z,100.00
2018-12-25T02:32:29.003Z,100.00
2018-12-25T02:34:58.705Z,100.00
2018-12-25T02:37:27.384Z,100.00
2018-12-25T02:39:55.819Z,100.00
2018-12-25T02:42:24.735Z,100.00
2018-12-25T02:44:53.195Z,100.00
2018-12-25T02:47:21.641Z,100.00
2018-12-25T02:49:50.716Z,100.00
2018-12-25T02:52:19.426Z,100.00
2018-12-25T02:54:47.832Z,100.00
2018-12-25T02:57:16.254Z,100.00
2018-12-25T02:59:44.676Z,100.00
2018-12-25T03:02:13.109Z,100.00
2018-12-25T03:04:41.528Z,100.00
2018-12-25T03:07:09.971Z,100.00
2018-12-25T03:09:38.393Z,100.00
2018-12-25T03:12:06.828Z,100.00
2018-12-25T03:14:35.248Z,100.00
2018-12-25T03:17:03.690Z,100.00
2018-12-25T03:19:32.111Z,100.00
2018-12-25T03:22:00.529Z,100.00
2018-12-25T03:24:28.994Z,100.00
2018-12-25T03:26:57.415Z,100.00
2018-12-25T03:29:25.831Z,100.00
2018-12-25T03:31:54.353Z,100.00
2018-12-25T03:34:22.749Z,100.00
2018-12-25T03:36:51.158Z,100.00
2018-12-25T03:39:19.612Z,100.00
2018-12-25T03:41:48.075Z,100.00
2018-12-25T03:44:16.509Z,100.00
2018-12-25T03:46:44.945Z,100.00
2018-12-25T03:49:13.404Z,100.00
2018-12-25T03:51:41.902Z,100.00
2018-12-25T03:54:10.313Z,100.00
2018-12-25T03:56:39.016Z,100.00
2018-12-25T03:59:07.459Z,100.00
2018-12-25T04:01:35.883Z,100.00
2018-12-25T04:04:04.334Z,100.00
2018-12-25T04:06:32.779Z,100.00
2018-12-25T04:09:01.210Z,100.00
2018-12-25T04:11:29.632Z,100.00
2018-12-25T04:13:58.571Z,100.00
2018-12-25T04:16:26.981Z,100.00
2018-12-25T04:18:55.436Z,100.00
2018-12-25T04:21:23.870Z,100.00
2018-12-25T04:23:52.302Z,100.00
2018-12-25T04:26:20.721Z,100.00
2018-12-25T04:28:49.181Z,100.00
2018-12-25T04:31:17.622Z,100.00
2018-12-25T04:33:46.040Z,100.00
2018-12-25T04:36:14.473Z,100.00
2018-12-25T04:38:43.026Z,100.00
2018-12-25T04:41:11.382Z,100.00
2018-12-25T04:43:40.359Z,100.00
2018-12-25T04:46:08.779Z,100.00
2018-12-25T04:48:37.219Z,100.00
2018-12-25T04:51:05.646Z,100.00
2018-12-25T04:53:34.060Z,100.00
2018-12-25T04:56:02.499Z,100.00
2018-12-25T04:58:30.955Z,100.00
2018-12-25T05:00:59.471Z,100.00
2018-12-25T05:03:27.901Z,100.00
2018-12-25T05:05:56.318Z,100.00
2018-12-25T05:08:24.781Z,100.00
2018-12-25T05:10:53.211Z,100.00
2018-12-25T05:13:21.700Z,100.00
2018-12-25T05:15:50.133Z,100.00
2018-12-25T05:18:18.605Z,100.00
2018-12-25T05:20:47.031Z,100.00
2018-12-25T05:23:15.493Z,100.00
2018-12-25T05:25:43.921Z,100.00
2018-12-25T05:28:12.330Z,100.00
2018-12-25T05:30:40.783Z,100.00
2018-12-25T05:33:09.203Z,100.00
2018-12-25T05:35:37.628Z,100.00
2018-12-25T05:38:06.075Z,100.00
2018-12-25T05:40:34.480Z,100.00
2018-12-25T05:43:02.973Z,100.00
2018-12-25T05:45:31.430Z,100.00
2018-12-25T05:47:59.834Z,100.00
2018-12-25T05:50:28.241Z,100.00
2018-12-25T05:52:56.786Z,100.00
2018-12-25T05:55:25.204Z,100.00
2018-12-25T05:57:53.652Z,100.00
2018-12-25T06:00:22.148Z,100.00
2018-12-25T06:02:50.555Z,100.00
2018-12-25T06:05:18.993Z,100.00
2018-12-25T06:07:47.439Z,100.00
2018-12-25T06:10:15.864Z,100.00
2018-12-25T06:12:44.348Z,100.00
2018-12-25T06:15:12.784Z,100.00
2018-12-25T06:17:41.183Z,100.00
2018-12-25T06:20:11.114Z,100.00
2018-12-25T06:22:39.531Z,100.00
2018-12-25T06:25:07.964Z,100.00
2018-12-25T06:27:36.479Z,100.00
2018-12-25T06:30:07.152Z,100.00
2018-12-25T06:32:35.561Z,100.00
2018-12-25T06:35:04.101Z,100.00
2018-12-25T06:37:32.513Z,100.00
2018-12-25T06:40:02.690Z,100.00
2018-12-25T06:42:31.095Z,100.00
2018-12-25T06:44:59.505Z,100.00
2018-12-25T06:47:30.193Z,100.00
2018-12-25T06:49:58.603Z,100.00
2018-12-25T06:52:27.095Z,100.00
2018-12-25T06:54:55.937Z,100.00
2018-12-25T06:57:28.139Z,100.00
2018-12-25T06:59:56.566Z,100.00
2018-12-25T07:02:24.999Z,100.00
2018-12-25T07:04:55.119Z,100.00
2018-12-25T07:07:23.552Z,100.00
2018-12-25T07:09:52.037Z,100.00
2018-12-25T07:12:20.474Z,100.00
2018-12-25T07:14:49.150Z,100.00
2018-12-25T07:17:17.592Z,100.00
2018-12-25T07:19:46.187Z,100.00
2018-12-25T07:22:14.588Z,100.00
2018-12-25T07:24:43.106Z,100.00
2018-12-25T07:27:11.539Z,100.00
2018-12-25T07:29:39.960Z,100.00
2018-12-25T07:32:08.404Z,100.00
2018-12-25T07:34:38.845Z,100.00
2018-12-25T07:37:07.188Z,100.00
2018-12-25T07:39:35.818Z,100.00
2018-12-25T07:42:04.170Z,100.00
2018-12-25T07:44:32.577Z,100.00
2018-12-25T07:47:01.041Z,100.00
2018-12-25T07:49:29.438Z,100.00
2018-12-25T07:51:57.872Z,100.00
2018-12-25T07:54:26.309Z,100.00
2018-12-25T07:56:54.722Z,100.00
2018-12-25T07:59:23.144Z,100.00
2018-12-25T08:01:51.586Z,100.00
2018-12-25T08:04:20.052Z,100.00
2018-12-25T08:06:48.488Z,100.00
2018-12-25T08:09:16.904Z,100.00
2018-12-25T08:11:45.322Z,100.00
2018-12-25T08:14:13.763Z,100.00
2018-12-25T08:16:42.241Z,100.00
2018-12-25T08:19:10.662Z,100.00
2018-12-25T08:21:39.533Z,100.00
2018-12-25T08:24:07.966Z,100.00
2018-12-25T08:26:36.781Z,100.00
2018-12-25T08:29:05.180Z,100.00
2018-12-25T08:31:33.731Z,100.00
2018-12-25T08:34:02.155Z,100.00
2018-12-25T08:36:30.568Z,100.00
2018-12-25T08:38:59.006Z,100.00
2018-12-25T08:41:28.309Z,100.00
2018-12-25T08:43:57.804Z,100.00
2018-12-25T08:46:28.917Z,100.00
2018-12-25T08:48:57.406Z,100.00
2018-12-25T08:51:25.881Z,100.00
2018-12-25T08:53:54.372Z,100.00
2018-12-25T08:56:22.824Z,100.00
2018-12-25T08:58:51.241Z,100.00
2018-12-25T09:01:19.692Z,100.00
2018-12-25T09:03:48.107Z,100.00
2018-12-25T09:06:16.617Z,100.00
2018-12-25T09:08:45.128Z,100.00
2018-12-25T09:11:13.566Z,100.00
2018-12-25T09:13:41.995Z,100.00
2018-12-25T09:16:10.528Z,100.00
2018-12-25T09:18:38.978Z,100.00
2018-12-25T09:21:07.401Z,100.00
2018-12-25T09:23:35.820Z,100.00
2018-12-25T09:26:04.330Z,100.00
2018-12-25T09:28:32.781Z,100.00
2018-12-25T09:31:01.204Z,100.00
2018-12-25T09:33:29.622Z,100.00
2018-12-25T09:35:58.081Z,100.00
2018-12-25T09:38:26.582Z,100.00
2018-12-25T09:40:56.288Z,100.00
2018-12-25T09:43:24.879Z,100.00
2018-12-25T09:45:56.721Z,100.00
2018-12-25T09:48:25.160Z,100.00
2018-12-25T09:50:53.697Z,100.00
2018-12-25T09:53:22.140Z,100.00
2018-12-25T09:55:50.604Z,100.00
2018-12-25T09:58:19.084Z,100.00
2018-12-25T10:00:47.629Z,100.00
2018-12-25T10:03:16.046Z,100.00
2018-12-25T10:05:44.501Z,100.00
2018-12-25T10:08:13.348Z,100.00
2018-12-25T10:10:41.704Z,100.00
2018-12-25T10:13:10.147Z,100.00
2018-12-25T10:15:38.640Z,100.00
2018-12-25T10:18:07.069Z,100.00
2018-12-25T10:20:36.622Z,100.00
2018-12-25T10:23:05.129Z,100.00
2018-12-25T10:25:33.561Z,100.00
2018-12-25T10:28:03.232Z,100.00
2018-12-25T10:30:31.698Z,100.00
2018-12-25T10:33:00.651Z,100.00
2018-12-25T10:35:30.076Z,100.00
2018-12-25T10:37:58.520Z,100.00
2018-12-25T10:40:26.930Z,100.00
2018-12-25T10:42:55.403Z,100.00
2018-12-25T10:45:23.827Z,100.00
2018-12-25T10:47:52.242Z,100.00
2018-12-25T10:50:20.843Z,100.00
2018-12-25T10:52:49.201Z,100.00
2018-12-25T10:55:17.907Z,100.00
2018-12-25T10:57:46.368Z,100.00
2018-12-25T11:00:14.916Z,100.00
2018-12-25T11:02:43.319Z,100.00
2018-12-25T11:05:11.966Z,100.00
2018-12-25T11:07:40.383Z,100.00
2018-12-25T11:10:09.270Z,100.00
2018-12-25T11:12:37.782Z,100.00
2018-12-25T11:15:07.218Z,100.00
2018-12-25T11:17:35.609Z,100.00
2018-12-25T11:20:11.352Z,100.00
2018-12-25T11:22:35.306Z,100.00
2018-12-25T11:25:03.801Z,100.00
2018-12-25T11:27:32.374Z,100.00
2018-12-25T11:30:01.032Z,100.00
2018-12-25T11:32:29.450Z,100.00
2018-12-25T11:34:57.953Z,100.00
2018-12-25T11:37:26.363Z,100.00
2018-12-25T11:39:54.781Z,100.00
2018-12-25T11:42:23.533Z,100.00
2018-12-25T11:44:51.948Z,100.00
2018-12-25T11:47:20.373Z,99.80
2018-12-25T11:49:48.792Z,100.00
2018-12-25T11:52:17.354Z,100.00
2018-12-25T11:54:45.810Z,99.85
2018-12-25T11:57:14.328Z,99.24
2018-12-25T11:59:42.820Z,99.63
2018-12-25T12:02:17.031Z,99.56
2018-12-25T12:04:41.420Z,98.88
2018-12-25T12:07:09.911Z,99.00
2018-12-25T12:09:38.335Z,98.76
2018-12-25T12:12:06.757Z,98.57
2018-12-25T12:14:35.164Z,98.55
2018-12-25T12:17:03.576Z,98.11
2018-12-25T12:19:32.022Z,97.69
2018-12-25T12:22:00.465Z,97.79
2018-12-25T12:24:28.878Z,98.15
2018-12-25T12:26:57.419Z,97.49
2018-12-25T12:29:25.820Z,97.79
2018-12-25T12:31:54.234Z,98.02
2018-12-25T12:34:22.679Z,97.23
2018-12-25T12:36:51.097Z,96.30
2018-12-25T12:39:19.598Z,97.19
2018-12-25T12:41:48.055Z,96.81
2018-12-25T12:44:16.591Z,95.74
2018-12-25T12:46:44.984Z,95.80
2018-12-25T12:49:13.380Z,95.92
2018-12-25T12:51:41.831Z,95.02
2018-12-25T12:54:10.256Z,95.13
2018-12-25T12:56:38.659Z,95.53
2018-12-25T12:59:07.701Z,95.52
2018-12-25T13:01:36.126Z,95.59
2018-12-25T13:04:04.530Z,94.57
2018-12-25T13:06:33.558Z,94.02
2018-12-25T13:09:04.431Z,95.30
2018-12-25T13:11:32.934Z,94.42
2018-12-25T13:14:01.376Z,94.21
2018-12-25T13:16:29.794Z,94.33
2018-12-25T13:18:58.257Z,93.96
2018-12-25T13:21:26.709Z,95.09
2018-12-25T13:23:55.132Z,94.62
2018-12-25T13:26:23.590Z,94.62
2018-12-25T13:28:52.017Z,93.50
2018-12-25T13:31:20.427Z,93.64
2018-12-25T13:33:48.944Z,93.75
2018-12-25T13:36:17.370Z,93.68
2018-12-25T13:38:46.841Z,93.76
2018-12-25T13:41:15.304Z,93.37
2018-12-25T13:43:43.798Z,93.16
2018-12-25T13:46:12.269Z,92.91
2018-12-25T13:48:40.751Z,93.74
2018-12-25T13:51:10.149Z,93.53
2018-12-25T13:53:45.267Z,94.42
2018-12-25T13:56:13.726Z,94.13
2018-12-25T13:58:42.125Z,94.12
2018-12-25T14:01:10.640Z,93.53
2018-12-25T14:03:39.085Z,93.35
2018-12-25T14:06:07.491Z,93.58
2018-12-25T14:08:35.975Z,93.69
2018-12-25T14:11:04.406Z,93.31
2018-12-25T14:13:32.806Z,93.01
2018-12-25T14:16:01.250Z,92.89
2018-12-25T14:18:29.664Z,92.38
2018-12-25T14:20:58.093Z,93.03
2018-12-25T14:23:26.519Z,92.55
2018-12-25T14:25:54.918Z,92.99
2018-12-25T14:28:23.358Z,92.08
2018-12-25T14:30:51.779Z,92.42
2018-12-25T14:33:20.370Z,92.44
2018-12-25T14:35:48.811Z,91.87
2018-12-25T14:38:17.282Z,92.00
2018-12-25T14:40:45.677Z,91.55
2018-12-25T14:43:14.147Z,91.41
2018-12-25T14:45:42.558Z,92.07
2018-12-25T14:48:10.989Z,92.01
2018-12-25T14:50:39.457Z,91.68
2018-12-25T14:53:07.863Z,91.88
2018-12-25T14:55:36.291Z,91.41
2018-12-25T14:58:04.723Z,91.99
2018-12-25T15:00:33.333Z,91.37
2018-12-25T15:03:01.736Z,91.38
2018-12-25T15:05:30.228Z,91.00
2018-12-25T15:07:58.971Z,90.60
2018-12-25T15:10:27.398Z,90.28
2018-12-25T15:12:56.478Z,90.42
2018-12-25T15:15:24.888Z,91.15
2018-12-25T15:17:53.352Z,90.92
2018-12-25T15:20:21.757Z,90.80
2018-12-25T15:22:50.210Z,91.30
2018-12-25T15:25:18.611Z,91.71
2018-12-25T15:27:47.026Z,92.37
2018-12-25T15:30:15.471Z,92.95
2018-12-25T15:32:43.877Z,93.06
2018-12-25T15:35:12.384Z,93.85
2018-12-25T15:37:40.801Z,94.05
2018-12-25T15:40:09.592Z,94.00
2018-12-25T15:42:38.031Z,94.63
2018-12-25T15:45:07.984Z,94.76
2018-12-25T15:47:36.383Z,94.96
2018-12-25T15:50:07.359Z,95.50
2018-12-25T15:52:35.777Z,95.45
2018-12-25T15:55:04.671Z,95.63
2018-12-25T15:57:33.113Z,95.42
2018-12-25T16:00:01.613Z,95.73
2018-12-25T16:02:30.033Z,95.90
2018-12-25T16:04:58.443Z,96.68
2018-12-25T16:07:26.883Z,96.17
2018-12-25T16:09:55.304Z,96.19
2018-12-25T16:12:23.778Z,95.69
2018-12-25T16:14:52.284Z,95.64
2018-12-25T16:17:20.688Z,95.69
2018-12-25T16:19:49.116Z,95.86
2018-12-25T16:22:17.607Z,95.68
2018-12-25T16:24:46.041Z,95.96
2018-12-25T16:27:14.535Z,95.54
2018-12-25T16:29:42.932Z,94.72
2018-12-25T16:32:12.699Z,95.10
2018-12-25T16:34:41.382Z,95.30
2018-12-25T16:37:09.819Z,95.31
2018-12-25T16:39:38.233Z,95.18
2018-12-25T16:42:06.799Z,94.92
2018-12-25T16:44:35.244Z,94.23
2018-12-25T16:47:03.657Z,94.88
2018-12-25T16:49:32.064Z,95.07
2018-12-25T16:52:00.520Z,95.28
2018-12-25T16:54:28.991Z,95.29
2018-12-25T16:56:57.433Z,95.27
2018-12-25T16:59:25.891Z,94.38
2018-12-25T17:01:54.405Z,94.75
2018-12-25T17:04:22.851Z,94.72
2018-12-25T17:06:51.305Z,95.08
2018-12-25T17:09:19.747Z,94.81
2018-12-25T17:11:48.178Z,95.14
2018-12-25T17:14:16.621Z,95.33
2018-12-25T17:16:45.077Z,95.42
2018-12-25T17:19:13.503Z,95.72
2018-12-25T17:21:41.931Z,96.44
2018-12-25T17:24:10.372Z,96.01
2018-12-25T17:26:38.778Z,96.26
2018-12-25T17:29:07.258Z,96.62
2018-12-25T17:31:35.699Z,96.47
2018-12-25T17:34:04.162Z,96.57
2018-12-25T17:36:32.604Z,96.22
2018-12-25T17:39:01.057Z,96.42
2018-12-25T17:41:29.438Z,96.65
2018-12-25T17:43:57.865Z,96.25
2018-12-25T17:46:26.283Z,96.45
2018-12-25T17:48:54.794Z,96.62
2018-12-25T17:51:23.537Z,96.39
2018-12-25T17:53:51.929Z,96.50
2018-12-25T17:56:20.404Z,96.55
2018-12-25T17:58:48.825Z,96.41
2018-12-25T18:01:17.235Z,96.14
2018-12-25T18:03:45.683Z,96.38
2018-12-25T18:06:14.119Z,96.56
2018-12-25T18:08:42.556Z,96.37
2018-12-25T18:11:11.061Z,96.76
2018-12-25T18:13:39.461Z,97.08
2018-12-25T18:16:08.030Z,97.16
2018-12-25T18:18:36.485Z,97.47
2018-12-25T18:21:04.927Z,97.53
2018-12-25T18:23:33.454Z,97.54
2018-12-25T18:26:02.173Z,98.11
2018-12-25T18:28:30.586Z,98.52
2018-12-25T18:30:59.152Z,98.65
2018-12-25T18:33:32.225Z,99.20
2018-12-25T18:36:00.655Z,99.24
2018-12-25T18:38:29.291Z,100.00
2018-12-25T18:40:57.747Z,99.92
2018-12-25T18:43:26.460Z,100.00
2018-12-25T18:45:54.876Z,100.00
2018-12-25T18:48:23.293Z,100.00
2018-12-25T18:50:51.798Z,100.00
2018-12-25T18:53:20.316Z,100.00
2018-12-25T18:55:48.741Z,100.00
2018-12-25T18:58:17.176Z,99.75
2018-12-25T19:00:45.593Z,100.00
2018-12-25T19:03:14.076Z,99.93
2018-12-25T19:05:42.518Z,100.00
2018-12-25T19:08:10.953Z,100.00
2018-12-25T19:10:39.383Z,100.00
2018-12-25T19:13:07.861Z,100.00
2018-12-25T19:15:36.902Z,100.00
2018-12-25T19:18:05.502Z,100.00
2018-12-25T19:20:33.941Z,100.00
2018-12-25T19:23:02.368Z,100.00
2018-12-25T19:25:30.839Z,100.00
2018-12-25T19:27:59.268Z,100.00
2018-12-25T19:30:27.773Z,100.00
2018-12-25T19:32:56.179Z,100.00
2018-12-25T19:35:24.631Z,100.00
2018-12-25T19:37:53.124Z,100.00
2018-12-25T19:40:21.552Z,100.00
2018-12-25T19:42:50.000Z,100.00
2018-12-25T19:45:19.733Z,100.00
2018-12-25T19:47:48.163Z,100.00
2018-12-25T19:50:16.674Z,99.41
2018-12-25T19:52:45.275Z,97.54
2018-12-25T19:55:13.988Z,96.93
2018-12-25T19:57:43.105Z,97.10
2018-12-25T20:00:14.085Z,96.29
2018-12-25T20:02:43.208Z,95.99
2018-12-25T20:05:20.360Z,96.41
2018-12-25T20:08:09.619Z,96.07
2018-12-25T20:10:52.979Z,96.05
2018-12-25T20:13:45.256Z,95.49
2018-12-25T20:16:34.654Z,95.90
2018-12-25T20:19:15.067Z,95.67
2018-12-25T20:21:49.221Z,95.28
2018-12-25T20:24:41.601Z,95.30
2018-12-25T20:27:22.088Z,95.23
2018-12-25T20:30:09.748Z,95.44
2018-12-25T20:32:44.115Z,95.53
2018-12-25T20:35:36.535Z,95.07
2018-12-25T20:38:08.023Z,94.93
2018-12-25T20:40:48.008Z,95.06
2018-12-25T20:43:24.669Z,95.49
2018-12-25T20:46:12.762Z,95.66
2018-12-25T20:49:01.777Z,95.90
2018-12-25T20:51:57.205Z,96.21
2018-12-25T20:54:40.922Z,96.14
2018-12-25T20:57:28.878Z,96.04
2018-12-25T21:00:06.514Z,96.63
2018-12-25T21:02:59.146Z,97.08
2018-12-25T21:05:50.158Z,97.30
2018-12-25T21:08:40.955Z,97.21
2018-12-25T21:11:41.038Z,97.18
2018-12-25T21:14:21.326Z,97.12
2018-12-25T21:17:20.887Z,97.63
2018-12-25T21:20:08.761Z,97.53
2018-12-25T21:23:13.955Z,97.53
2018-12-25T21:26:18.686Z,98.04
2018-12-25T21:28:47.587Z,98.14
2018-12-25T21:31:16.113Z,98.29
2018-12-25T21:33:44.676Z,98.18
2018-12-25T21:36:13.206Z,98.19
2018-12-25T21:38:41.657Z,98.31
2018-12-25T21:41:11.700Z,98.53
2018-12-25T21:43:40.588Z,98.54
2018-12-25T21:46:09.162Z,98.66
2018-12-25T21:48:38.113Z,98.56
2018-12-25T21:51:07.129Z,98.50
2018-12-25T21:53:35.683Z,98.17
2018-12-25T21:56:04.542Z,97.87
2018-12-25T21:58:33.066Z,97.66
2018-12-25T22:01:01.546Z,98.50
2018-12-25T22:03:30.371Z,98.25
2018-12-25T22:05:58.838Z,98.38
2018-12-25T22:08:27.292Z,98.60
2018-12-25T22:10:55.735Z,98.44
2018-12-25T22:13:24.164Z,98.21
2018-12-25T22:15:52.579Z,97.98
2018-12-25T22:18:21.126Z,98.38
2018-12-25T22:20:49.508Z,98.36
2018-12-25T22:23:17.964Z,98.04
2018-12-25T22:25:46.391Z,98.29
2018-12-25T22:28:14.876Z,98.54
2018-12-25T22:30:43.383Z,98.83
2018-12-25T22:33:11.742Z,98.48
2018-12-25T22:35:40.153Z,99.06
2018-12-25T22:38:08.678Z,98.86
2018-12-25T22:40:37.091Z,98.85
2018-12-25T22:43:05.522Z,98.92
2018-12-25T22:45:34.693Z,98.95
2018-12-25T22:48:03.083Z,99.09
2018-12-25T22:50:31.675Z,99.13
2018-12-25T22:53:00.145Z,99.12
2018-12-25T22:55:35.808Z,99.07
2018-12-25T22:58:00.331Z,99.20
2018-12-25T23:00:29.258Z,99.27
2018-12-25T23:02:57.688Z,99.71
2018-12-25T23:05:26.171Z,100.00
2018-12-25T23:07:54.591Z,100.00
2018-12-25T23:10:23.012Z,99.83
2018-12-25T23:12:51.457Z,99.68
2018-12-25T23:15:19.911Z,99.72
2018-12-25T23:17:48.352Z,99.95
2018-12-25T23:20:16.814Z,99.94
2018-12-25T23:22:45.243Z,99.69
2018-12-25T23:25:13.751Z,99.72
2018-12-25T23:27:42.156Z,99.90
2018-12-25T23:30:10.612Z,99.80
2018-12-25T23:32:39.041Z,99.46
2018-12-25T23:35:07.601Z,99.20
2018-12-25T23:37:36.862Z,99.31
2018-12-25T23:40:06.068Z,99.06
2018-12-25T23:42:36.903Z,99.20
2018-12-25T23:45:05.906Z,99.24
2018-12-25T23:47:34.319Z,99.14
2018-12-25T23:50:03.153Z,98.89
2018-12-25T23:52:31.585Z,98.95
2018-12-25T23:55:00.002Z,99.01
2018-12-25T23:57:28.424Z,98.82
